createdAt,value
2023-01-23T00:02:22.731Z,16.70
2023-01-23T00:04:49.915Z,15.88
2023-01-23T00:07:17.085Z,16.35
2023-01-23T00:09:44.496Z,15.10
2023-01-23T00:12:11.655Z,14.88
2023-01-23T00:14:38.829Z,14.75
2023-01-23T00:17:06.022Z,14.75
2023-01-23T00:19:33.196Z,14.40
2023-01-23T00:22:01.729Z,14.63
2023-01-23T00:24:28.900Z,13.90
2023-01-23T00:26:56.463Z,14.23
2023-01-23T00:29:23.650Z,12.57
2023-01-23T00:31:50.894Z,14.05
2023-01-23T00:34:18.031Z,13.27
2023-01-23T00:36:45.774Z,12.93
2023-01-23T00:39:15.528Z,15.60
2023-01-23T00:41:42.698Z,13.63
2023-01-23T00:44:09.843Z,14.20
2023-01-23T00:46:37.286Z,13.25
2023-01-23T00:49:04.580Z,14.40
2023-01-23T00:51:31.773Z,12.98
2023-01-23T00:53:58.931Z,13.35
2023-01-23T00:56:26.123Z,13.13
2023-01-23T00:58:53.257Z,13.13
2023-01-23T01:01:22.650Z,13.70
2023-01-23T01:03:50.028Z,13.38
2023-01-23T01:06:17.271Z,13.40
2023-01-23T01:08:44.469Z,13.25
2023-01-23T01:11:11.689Z,13.75
2023-01-23T01:13:38.970Z,13.15
2023-01-23T01:16:06.698Z,14.32
2023-01-23T01:18:33.963Z,12.45
2023-01-23T01:21:01.276Z,14.27
2023-01-23T01:23:28.443Z,13.88
2023-01-23T01:25:58.961Z,14.20
2023-01-23T01:28:27.290Z,13.10
2023-01-23T01:30:54.514Z,13.75
2023-01-23T01:33:21.730Z,12.38
2023-01-23T01:35:48.864Z,13.73
2023-01-23T01:38:15.988Z,14.18
2023-01-23T01:40:43.349Z,14.80
2023-01-23T01:43:18.191Z,15.90
2023-01-23T01:46:04.196Z,14.70
2023-01-23T01:48:34.156Z,14.32
2023-01-23T01:51:01.962Z,14.55
2023-01-23T01:53:29.941Z,15.32
2023-01-23T01:55:57.521Z,15.20
2023-01-23T01:58:25.181Z,14.27
2023-01-23T02:00:52.498Z,13.55
2023-01-23T02:03:19.700Z,14.77
2023-01-23T02:05:48.760Z,14.05
2023-01-23T02:08:16.097Z,14.38
2023-01-23T02:10:44.199Z,14.32
2023-01-23T02:13:23.683Z,15.00
2023-01-23T02:15:51.973Z,13.52
2023-01-23T02:18:19.519Z,15.88
2023-01-23T02:20:47.564Z,14.30
2023-01-23T02:23:17.721Z,14.05
2023-01-23T02:25:44.885Z,14.85
2023-01-23T02:28:16.693Z,15.20
2023-01-23T02:30:50.492Z,15.05
2023-01-23T02:33:20.463Z,15.43
2023-01-23T02:35:47.692Z,13.90
2023-01-23T02:38:15.099Z,15.02
2023-01-23T02:40:43.247Z,15.63
2023-01-23T02:43:13.615Z,15.15
2023-01-23T02:45:40.822Z,16.27
2023-01-23T02:48:08.899Z,14.52
2023-01-23T02:50:36.066Z,14.05
2023-01-23T02:53:03.278Z,14.82
2023-01-23T02:55:31.688Z,14.55
2023-01-23T02:58:18.803Z,15.07
2023-01-23T03:00:46.639Z,14.30
2023-01-23T03:03:14.020Z,16.20
2023-01-23T03:05:41.210Z,15.10
2023-01-23T03:08:08.422Z,15.25
2023-01-23T03:10:35.607Z,14.27
2023-01-23T03:13:04.609Z,15.00
2023-01-23T03:15:31.915Z,14.52
2023-01-23T03:17:59.152Z,14.10
2023-01-23T03:20:27.427Z,14.35
2023-01-23T03:22:54.829Z,14.57
2023-01-23T03:25:22.084Z,15.15
2023-01-23T03:27:49.558Z,14.80
2023-01-23T03:30:17.106Z,15.05
2023-01-23T03:32:45.352Z,14.70
2023-01-23T03:35:20.416Z,14.80
2023-01-23T03:37:48.138Z,14.20
2023-01-23T03:40:43.388Z,15.82
2023-01-23T03:43:10.835Z,16.15
2023-01-23T03:45:38.136Z,15.13
2023-01-23T03:48:05.329Z,15.38
2023-01-23T03:50:32.456Z,15.23
2023-01-23T03:52:59.598Z,15.77
2023-01-23T03:55:26.787Z,14.93
2023-01-23T03:57:53.979Z,15.57
2023-01-23T04:00:21.722Z,14.30
2023-01-23T04:02:49.167Z,15.23
2023-01-23T04:05:16.358Z,15.23
2023-01-23T04:07:43.521Z,14.85
2023-01-23T04:10:13.034Z,15.32
2023-01-23T04:12:42.710Z,16.17
2023-01-23T04:15:10.339Z,14.23
2023-01-23T04:17:37.544Z,14.13
2023-01-23T04:20:05.058Z,15.35
2023-01-23T04:22:32.190Z,14.90
2023-01-23T04:24:59.496Z,14.82
2023-01-23T04:27:26.668Z,14.32
2023-01-23T04:29:53.838Z,14.23
2023-01-23T04:32:21.089Z,13.68
2023-01-23T04:34:48.227Z,13.88
2023-01-23T04:37:15.371Z,14.30
2023-01-23T04:39:42.607Z,13.70
2023-01-23T04:42:10.141Z,15.27
2023-01-23T04:44:37.313Z,14.95
2023-01-23T04:47:04.517Z,15.35
2023-01-23T04:49:31.730Z,15.60
2023-01-23T04:51:58.879Z,15.10
2023-01-23T04:54:26.083Z,13.98
2023-01-23T04:56:53.317Z,14.10
2023-01-23T04:59:21.626Z,13.63
2023-01-23T05:01:48.972Z,13.57
2023-01-23T05:04:16.218Z,15.05
2023-01-23T05:06:43.401Z,13.18
2023-01-23T05:09:10.587Z,14.05
2023-01-23T05:11:37.814Z,13.95
2023-01-23T05:14:04.986Z,13.73
2023-01-23T05:16:32.227Z,14.48
2023-01-23T05:18:59.355Z,15.18
2023-01-23T05:21:26.582Z,14.45
2023-01-23T05:23:53.701Z,14.27
2023-01-23T05:26:20.819Z,14.23
2023-01-23T05:28:48.055Z,14.80
2023-01-23T05:31:15.412Z,13.75
2023-01-23T05:33:42.635Z,13.60
2023-01-23T05:36:09.928Z,13.73
2023-01-23T05:38:37.079Z,15.63
2023-01-23T05:41:04.377Z,15.75
2023-01-23T05:43:31.508Z,15.32
2023-01-23T05:46:02.024Z,13.95
2023-01-23T05:48:29.267Z,14.13
2023-01-23T05:50:56.543Z,13.60
2023-01-23T05:53:24.208Z,13.82
2023-01-23T05:55:51.328Z,14.80
2023-01-23T05:58:18.519Z,14.25
2023-01-23T06:00:45.662Z,13.20
2023-01-23T06:03:12.800Z,14.18
2023-01-23T06:05:41.009Z,13.40
2023-01-23T06:08:08.187Z,14.65
2023-01-23T06:10:37.456Z,14.88
2023-01-23T06:13:04.582Z,14.38
2023-01-23T06:15:31.751Z,14.68
2023-01-23T06:17:58.989Z,15.02
2023-01-23T06:20:26.159Z,15.50
2023-01-23T06:22:53.264Z,15.45
2023-01-23T06:25:22.124Z,15.20
2023-01-23T06:27:49.865Z,15.68
2023-01-23T06:30:17.059Z,15.70
2023-01-23T06:32:44.267Z,14.10
2023-01-23T06:35:11.555Z,16.70
2023-01-23T06:37:38.773Z,16.80
2023-01-23T06:40:06.378Z,16.75
2023-01-23T06:42:33.564Z,15.77
2023-01-23T06:45:00.718Z,16.33
2023-01-23T06:47:27.917Z,16.88
2023-01-23T06:49:55.096Z,18.85
2023-01-23T06:52:22.269Z,18.15
2023-01-23T06:54:49.474Z,18.83
2023-01-23T06:57:16.619Z,18.25
2023-01-23T06:59:43.742Z,18.20
2023-01-23T07:02:14.120Z,19.98
2023-01-23T07:04:41.264Z,19.42
2023-01-23T07:07:08.508Z,23.70
2023-01-23T07:09:35.676Z,23.98
2023-01-23T07:12:02.872Z,21.52
2023-01-23T07:14:30.051Z,22.60
2023-01-23T07:16:57.196Z,23.30
2023-01-23T07:19:24.378Z,21.73
2023-01-23T07:21:51.807Z,21.98
2023-01-23T07:24:18.974Z,21.48
2023-01-23T07:26:46.196Z,22.77
2023-01-23T07:29:14.290Z,21.35
2023-01-23T07:31:41.477Z,19.73
2023-01-23T07:34:08.682Z,21.42
2023-01-23T07:36:35.845Z,21.83
2023-01-23T07:39:03.066Z,21.17
2023-01-23T07:41:30.288Z,20.55
2023-01-23T07:43:57.547Z,22.23
2023-01-23T07:46:25.844Z,22.30
2023-01-23T07:48:53.328Z,21.80
2023-01-23T07:51:20.508Z,22.33
2023-01-23T07:53:47.713Z,23.25
2023-01-23T07:56:14.868Z,22.92
2023-01-23T07:58:41.983Z,22.38
2023-01-23T08:01:12.502Z,22.98
2023-01-23T08:03:39.764Z,23.38
2023-01-23T08:06:07.166Z,21.45
2023-01-23T08:08:34.570Z,20.83
2023-01-23T08:11:04.618Z,20.58
2023-01-23T08:13:31.802Z,20.50
2023-01-23T08:15:59.695Z,20.52
2023-01-23T08:18:27.151Z,21.02
2023-01-23T08:20:55.230Z,21.45
2023-01-23T08:23:25.600Z,20.58
2023-01-23T08:25:56.726Z,18.95
2023-01-23T08:28:24.494Z,19.08
2023-01-23T08:30:51.665Z,19.20
2023-01-23T08:33:19.763Z,18.45
2023-01-23T08:36:05.706Z,18.00
2023-01-23T08:38:33.453Z,19.10
2023-01-23T08:41:01.864Z,16.70
2023-01-23T08:43:29.283Z,18.20
2023-01-23T08:45:57.924Z,16.05
2023-01-23T08:48:26.830Z,16.20
2023-01-23T08:50:59.457Z,15.77
2023-01-23T08:53:26.660Z,16.42
2023-01-23T08:55:53.874Z,16.63
2023-01-23T08:58:21.261Z,18.30
2023-01-23T09:00:49.226Z,16.20
2023-01-23T09:03:16.459Z,15.68
2023-01-23T09:05:43.654Z,16.85
2023-01-23T09:08:10.785Z,15.82
2023-01-23T09:10:37.980Z,17.45
2023-01-23T09:13:05.509Z,17.17
2023-01-23T09:15:32.724Z,16.35
2023-01-23T09:18:00.134Z,16.92
2023-01-23T09:20:29.123Z,17.35
2023-01-23T09:22:56.583Z,17.10
2023-01-23T09:25:23.785Z,17.02
2023-01-23T09:27:50.954Z,15.50
2023-01-23T09:30:19.023Z,16.70
2023-01-23T09:32:46.450Z,15.45
2023-01-23T09:35:13.671Z,16.63
2023-01-23T09:37:59.480Z,16.15
2023-01-23T09:40:46.993Z,16.10
2023-01-23T09:43:17.476Z,14.68
2023-01-23T09:45:47.978Z,15.25
2023-01-23T09:48:18.227Z,14.43
2023-01-23T09:50:53.243Z,14.98
2023-01-23T09:53:22.928Z,14.45
2023-01-23T09:55:51.858Z,13.93
2023-01-23T09:58:28.364Z,14.30
2023-01-23T10:00:55.733Z,14.70
2023-01-23T10:03:24.335Z,13.95
2023-01-23T10:06:06.897Z,14.27
2023-01-23T10:08:52.753Z,15.18
2023-01-23T10:11:32.143Z,15.57
2023-01-23T10:13:59.274Z,16.17
2023-01-23T10:16:50.432Z,14.55
2023-01-23T10:19:34.817Z,14.40
2023-01-23T10:22:22.291Z,14.90
2023-01-23T10:24:54.627Z,14.73
2023-01-23T10:27:27.074Z,15.20
2023-01-23T10:29:59.071Z,16.23
2023-01-23T10:32:26.237Z,15.75
2023-01-23T10:34:59.444Z,15.43
2023-01-23T10:37:31.466Z,16.63
2023-01-23T10:40:01.576Z,17.42
2023-01-23T10:42:29.042Z,16.55
2023-01-23T10:44:56.339Z,16.27
2023-01-23T10:47:33.185Z,16.30
2023-01-23T10:50:01.789Z,17.20
2023-01-23T10:52:31.141Z,17.17
2023-01-23T10:54:58.309Z,15.75
2023-01-23T10:57:26.900Z,16.80
2023-01-23T11:00:07.180Z,16.63
2023-01-23T11:02:37.132Z,16.73
2023-01-23T11:05:24.360Z,17.13
2023-01-23T11:07:55.602Z,16.88
2023-01-23T11:10:24.115Z,17.25
2023-01-23T11:12:52.563Z,16.98
2023-01-23T11:15:28.079Z,17.95
2023-01-23T11:17:59.336Z,16.85
2023-01-23T11:20:33.910Z,17.15
2023-01-23T11:23:01.009Z,16.75
2023-01-23T11:25:32.485Z,17.20
2023-01-23T11:28:00.930Z,17.23
2023-01-23T11:30:28.148Z,18.02
2023-01-23T11:33:00.005Z,17.67
2023-01-23T11:35:37.630Z,17.65
2023-01-23T11:38:05.804Z,16.98
2023-01-23T11:40:33.005Z,17.23
2023-01-23T11:43:00.171Z,17.55
2023-01-23T11:45:46.505Z,17.63
2023-01-23T11:48:32.382Z,16.80
2023-01-23T11:51:19.833Z,17.77
2023-01-23T11:53:54.885Z,18.83
2023-01-23T11:56:35.528Z,17.55
2023-01-23T11:59:02.707Z,17.08
2023-01-23T12:01:55.104Z,17.63
2023-01-23T12:04:38.679Z,17.33
2023-01-23T12:07:05.818Z,16.75
2023-01-23T12:09:44.138Z,18.15
2023-01-23T12:12:26.373Z,16.52
2023-01-23T12:14:59.321Z,16.52
2023-01-23T12:17:33.437Z,16.85
2023-01-23T12:20:19.549Z,16.60
2023-01-23T12:23:11.113Z,17.00
2023-01-23T12:25:39.484Z,16.20
2023-01-23T12:28:25.581Z,15.70
2023-01-23T12:30:56.114Z,15.73
2023-01-23T12:33:43.538Z,16.90
2023-01-23T12:36:10.700Z,16.58
2023-01-23T12:38:42.473Z,16.38
2023-01-23T12:41:15.568Z,16.85
2023-01-23T12:43:54.865Z,16.10
2023-01-23T12:46:43.664Z,15.77
2023-01-23T12:49:10.841Z,15.98
2023-01-23T12:51:39.869Z,14.35
2023-01-23T12:54:10.401Z,14.57
2023-01-23T12:56:42.966Z,14.80
2023-01-23T12:59:15.880Z,16.55
2023-01-23T13:01:49.167Z,15.77
2023-01-23T13:04:28.269Z,15.63
2023-01-23T13:06:55.818Z,15.75
2023-01-23T13:09:27.128Z,15.40
2023-01-23T13:12:02.153Z,16.52
2023-01-23T13:14:43.540Z,15.45
2023-01-23T13:17:31.466Z,16.48
2023-01-23T13:20:36.022Z,16.38
2023-01-23T13:23:21.975Z,14.85
2023-01-23T13:25:49.405Z,15.38
2023-01-23T13:28:44.426Z,15.32
2023-01-23T13:31:46.687Z,15.15
2023-01-23T13:34:18.186Z,16.60
2023-01-23T13:36:49.365Z,16.27
2023-01-23T13:39:19.769Z,17.05
2023-01-23T13:41:48.319Z,15.95
2023-01-23T13:44:21.317Z,14.43
2023-01-23T14:24:41.793Z,16.15
2023-01-23T14:27:11.596Z,15.80
2023-01-23T14:29:38.794Z,15.25
2023-01-23T14:32:05.925Z,14.95
2023-01-23T14:34:39.380Z,15.38
2023-01-23T14:37:08.807Z,15.07
2023-01-23T14:39:36.382Z,15.93
2023-01-23T14:42:05.453Z,15.07
2023-01-23T14:44:44.240Z,14.40
2023-01-23T14:47:15.994Z,14.23
2023-01-23T14:49:43.536Z,15.80
2023-01-23T14:52:22.433Z,15.18
2023-01-23T14:54:54.193Z,14.43
2023-01-23T14:57:23.752Z,14.60
2023-01-23T14:59:51.889Z,15.40
2023-01-23T15:02:31.424Z,15.70
2023-01-23T15:05:08.135Z,14.70
2023-01-23T15:07:36.369Z,15.63
2023-01-23T15:10:03.697Z,14.18
2023-01-23T15:12:30.895Z,13.73
2023-01-23T15:14:58.191Z,14.80
2023-01-23T15:17:25.350Z,15.27
2023-01-23T15:19:59.509Z,14.07
2023-01-23T15:22:28.245Z,14.88
2023-01-23T15:24:56.000Z,15.15
2023-01-23T15:27:37.936Z,15.93
2023-01-23T15:30:23.748Z,14.38
2023-01-23T15:32:50.851Z,14.63
2023-01-23T15:35:18.495Z,14.02
2023-01-23T15:37:49.561Z,15.32
2023-01-23T15:40:17.887Z,14.68
2023-01-23T15:43:00.800Z,13.88
2023-01-23T15:45:27.972Z,15.05
2023-01-23T15:47:55.092Z,15.40
2023-01-23T15:50:22.580Z,15.10
2023-01-23T15:52:52.009Z,16.20
2023-01-23T15:55:19.606Z,15.65
2023-01-23T15:57:46.745Z,15.90
2023-01-23T16:00:18.653Z,15.32
2023-01-23T16:02:55.760Z,16.15
2023-01-23T16:05:24.872Z,17.38
2023-01-23T16:07:52.299Z,16.50
2023-01-23T16:10:19.560Z,17.48
2023-01-23T16:12:48.835Z,17.70
2023-01-23T16:15:17.782Z,17.25
2023-01-23T16:17:45.209Z,17.70
2023-01-23T16:20:16.233Z,18.95
2023-01-23T16:22:43.683Z,17.95
2023-01-23T16:25:42.893Z,18.83
2023-01-23T16:28:32.499Z,17.98
2023-01-23T16:30:59.924Z,18.17
2023-01-23T16:33:27.068Z,18.58
2023-01-23T16:35:55.447Z,17.10
2023-01-23T16:38:24.163Z,18.13
2023-01-23T16:40:53.246Z,17.73
2023-01-23T16:43:21.006Z,18.05
2023-01-23T16:45:48.350Z,17.42
2023-01-23T16:48:26.059Z,17.38
2023-01-23T16:50:57.181Z,17.95
2023-01-23T16:53:29.036Z,18.92
2023-01-23T16:55:57.340Z,17.98
2023-01-23T16:58:28.801Z,17.85
2023-01-23T17:01:00.111Z,19.23
2023-01-23T17:03:28.799Z,17.35
2023-01-23T17:05:56.035Z,19.00
2023-01-23T17:08:24.512Z,18.50
2023-01-23T17:11:00.094Z,17.65
2023-01-23T17:13:27.832Z,17.25
2023-01-23T17:15:56.298Z,18.10
2023-01-23T17:18:25.399Z,18.67
2023-01-23T17:20:55.913Z,18.33
2023-01-23T17:23:24.003Z,17.30
2023-01-23T17:26:00.238Z,18.17
2023-01-23T17:28:27.846Z,17.25
2023-01-23T17:30:55.589Z,18.42
2023-01-23T17:33:28.357Z,17.95
2023-01-23T17:35:56.117Z,17.88
2023-01-23T17:38:27.416Z,18.75
2023-01-23T17:40:54.860Z,18.98
2023-01-23T17:43:22.243Z,17.45
2023-01-23T17:45:50.792Z,17.25
2023-01-23T17:48:19.447Z,18.30
2023-01-23T17:50:46.813Z,17.55
2023-01-23T17:53:14.694Z,17.50
2023-01-23T17:55:46.486Z,17.52
2023-01-23T17:58:14.269Z,17.45
2023-01-23T18:00:42.051Z,20.42
2023-01-23T18:03:12.353Z,17.35
2023-01-23T18:05:39.740Z,18.10
2023-01-23T18:08:07.196Z,19.45
2023-01-23T18:10:35.215Z,18.83
2023-01-23T18:13:11.596Z,19.33
2023-01-23T18:15:41.550Z,18.95
2023-01-23T18:18:18.989Z,19.35
2023-01-23T18:20:46.429Z,20.58
2023-01-23T18:23:13.896Z,18.83
2023-01-23T18:25:43.313Z,19.13
2023-01-23T18:28:15.429Z,19.38
2023-01-23T18:31:02.897Z,21.10
2023-01-23T18:33:34.261Z,20.52
2023-01-23T18:36:18.010Z,19.45
2023-01-23T18:38:48.440Z,20.17
2023-01-23T18:41:15.564Z,18.52
2023-01-23T18:43:48.631Z,19.80
2023-01-23T18:46:17.686Z,19.85
2023-01-23T18:48:45.908Z,19.98
2023-01-23T18:51:22.322Z,20.65
2023-01-23T18:54:08.377Z,18.80
2023-01-23T18:56:42.246Z,19.08
2023-01-23T18:59:15.268Z,19.90
2023-01-23T19:01:53.383Z,20.58
2023-01-23T19:04:38.659Z,19.90
2023-01-23T19:07:14.929Z,19.95
2023-01-23T19:09:46.444Z,21.48
2023-01-23T19:12:26.070Z,21.75
2023-01-23T19:14:56.290Z,21.73
2023-01-23T19:17:32.760Z,23.33
2023-01-23T19:20:15.162Z,24.30
2023-01-23T19:22:54.190Z,21.60
2023-01-23T19:25:21.833Z,21.02
2023-01-23T19:27:52.618Z,21.77
2023-01-23T19:30:22.171Z,22.50
2023-01-23T19:32:50.252Z,22.75
2023-01-23T19:35:17.765Z,23.23
2023-01-23T19:37:45.554Z,22.13
2023-01-23T19:40:16.851Z,22.85
2023-01-23T19:42:54.192Z,21.83
2023-01-23T19:45:31.328Z,24.00
2023-01-23T19:47:59.103Z,22.77
2023-01-23T19:50:26.470Z,24.42
2023-01-23T19:52:55.262Z,24.70
2023-01-23T19:55:27.703Z,23.80
2023-01-23T19:57:56.401Z,23.45
2023-01-23T20:00:24.078Z,24.75
2023-01-23T20:02:51.822Z,24.10
2023-01-23T20:05:19.336Z,23.50
2023-01-23T20:07:46.715Z,24.13
2023-01-23T20:10:14.220Z,22.35
2023-01-23T20:12:42.878Z,21.33
2023-01-23T20:15:10.538Z,23.15
2023-01-23T20:17:37.775Z,23.77
2023-01-23T20:20:05.717Z,22.58
2023-01-23T20:22:32.978Z,26.23
2023-01-23T20:25:00.117Z,24.05
2023-01-23T20:27:27.239Z,23.48
2023-01-23T20:29:54.354Z,23.38
2023-01-23T20:32:21.572Z,21.75
2023-01-23T20:34:48.754Z,22.55
2023-01-23T20:37:16.007Z,22.70
2023-01-23T20:39:43.185Z,23.77
2023-01-23T20:42:11.281Z,23.67
2023-01-23T20:44:38.602Z,24.23
2023-01-23T20:47:06.259Z,23.30
2023-01-23T20:49:33.380Z,24.30
2023-01-23T20:52:19.044Z,23.30
2023-01-23T20:54:46.771Z,22.80
2023-01-23T20:57:14.750Z,23.27
2023-01-23T20:59:41.887Z,23.65
2023-01-23T21:02:23.386Z,23.77
2023-01-23T21:04:51.121Z,23.70
2023-01-23T21:07:18.742Z,22.63
2023-01-23T21:09:46.117Z,23.17
2023-01-23T21:12:13.495Z,23.75
2023-01-23T21:14:40.848Z,23.92
2023-01-23T21:17:09.593Z,24.40
2023-01-23T21:19:38.853Z,24.45
2023-01-23T21:22:06.419Z,21.33
2023-01-23T21:24:34.538Z,23.85
2023-01-23T21:27:05.524Z,23.80
2023-01-23T21:29:33.135Z,22.60
2023-01-23T21:32:00.752Z,22.75
2023-01-23T21:34:28.389Z,22.75
2023-01-23T21:36:55.543Z,22.23
2023-01-23T21:39:22.729Z,22.88
2023-01-23T21:41:49.923Z,22.33
2023-01-23T21:44:17.113Z,23.50
2023-01-23T21:46:46.572Z,22.45
2023-01-23T21:49:13.785Z,23.90
2023-01-23T21:51:40.974Z,24.27
2023-01-23T21:54:08.138Z,23.65
2023-01-23T21:56:36.712Z,23.13
2023-01-23T21:59:03.974Z,22.98
2023-01-23T22:01:39.355Z,23.35
2023-01-23T22:04:07.704Z,26.20
2023-01-23T22:06:35.347Z,24.52
2023-01-23T22:09:03.054Z,22.38
2023-01-23T22:11:30.430Z,23.73
2023-01-23T22:13:57.734Z,22.85
2023-01-23T22:16:40.143Z,23.33
2023-01-23T22:19:14.269Z,24.70
2023-01-23T22:21:41.454Z,24.23
2023-01-23T22:24:08.760Z,21.45
2023-01-23T22:26:35.914Z,23.10
2023-01-23T22:29:03.073Z,24.00
2023-01-23T22:31:30.445Z,23.10
2023-01-23T22:33:57.711Z,22.08
2023-01-23T22:36:24.917Z,22.98
2023-01-23T22:38:53.280Z,22.52
2023-01-23T22:41:20.814Z,21.38
2023-01-23T22:43:52.364Z,21.20
2023-01-23T22:46:19.540Z,20.02
2023-01-23T22:48:46.972Z,19.25
2023-01-23T22:51:24.738Z,19.90
2023-01-23T22:53:52.790Z,20.40
2023-01-23T22:56:20.242Z,19.65
2023-01-23T22:58:48.215Z,19.70
2023-01-23T23:01:15.740Z,19.45
2023-01-23T23:03:42.970Z,20.67
2023-01-23T23:06:11.979Z,19.35
2023-01-23T23:08:39.223Z,19.02
2023-01-23T23:11:07.961Z,18.80
2023-01-23T23:13:36.964Z,18.30
2023-01-23T23:16:08.607Z,18.83
2023-01-23T23:18:39.040Z,18.90
2023-01-23T23:21:07.485Z,20.05
2023-01-23T23:23:34.881Z,18.85
2023-01-23T23:26:02.173Z,19.75
2023-01-23T23:28:30.407Z,18.05
2023-01-23T23:30:57.903Z,19.63
2023-01-23T23:33:25.170Z,19.30
2023-01-23T23:35:52.477Z,19.38
2023-01-23T23:38:19.737Z,19.60
2023-01-23T23:41:00.237Z,18.85
2023-01-23T23:43:28.049Z,19.90
2023-01-23T23:45:59.339Z,18.70
2023-01-23T23:48:27.261Z,19.88
2023-01-23T23:50:54.649Z,19.73
2023-01-23T23:53:22.282Z,18.88
2023-01-23T23:55:49.761Z,18.00
2023-01-23T23:58:16.982Z,19.08
